createdAt,value
2024-05-09T00:01:11.576Z,14.45
2024-05-09T00:02:13.762Z,14.43
2024-05-09T00:03:15.129Z,14.41
2024-05-09T00:04:18.574Z,14.39
2024-05-09T00:05:20.872Z,14.37
2024-05-09T00:06:22.057Z,14.36
2024-05-09T00:07:24.005Z,14.35
2024-05-09T00:08:24.987Z,14.33
2024-05-09T00:09:26.954Z,14.32
2024-05-09T00:10:35.311Z,14.31
2024-05-09T00:11:40.097Z,14.29
2024-05-09T00:12:41.176Z,14.28
2024-05-09T00:13:43.150Z,14.26
2024-05-09T00:14:44.131Z,14.25
2024-05-09T00:15:46.123Z,14.23
2024-05-09T00:16:48.483Z,14.22
2024-05-09T00:17:50.751Z,14.20
2024-05-09T00:18:52.049Z,14.18
2024-05-09T00:19:55.545Z,14.17
2024-05-09T00:20:56.602Z,14.15
2024-05-09T00:21:58.663Z,14.14
2024-05-09T00:22:59.920Z,14.13
2024-05-09T00:24:03.197Z,14.12
2024-05-09T00:25:05.003Z,14.11
2024-05-09T00:26:05.979Z,14.10
2024-05-09T00:27:08.457Z,14.09
2024-05-09T00:28:10.387Z,14.08
2024-05-09T00:29:12.400Z,14.07
2024-05-09T00:30:21.005Z,14.07
2024-05-09T00:31:26.490Z,14.06
2024-05-09T00:32:27.652Z,14.05
2024-05-09T00:33:29.909Z,14.04
2024-05-09T00:34:31.276Z,14.03
2024-05-09T00:35:35.014Z,14.02
2024-05-09T00:36:36.158Z,14.01
2024-05-09T00:37:38.089Z,14.01
2024-05-09T00:38:39.178Z,14.01
2024-05-09T00:39:41.110Z,14.00
2024-05-09T00:40:43.517Z,14.00
2024-05-09T00:41:45.890Z,14.00
2024-05-09T00:42:46.910Z,14.00
2024-05-09T00:43:49.021Z,14.00
2024-05-09T00:44:49.993Z,13.99
2024-05-09T00:45:53.797Z,13.99
2024-05-09T00:46:56.412Z,13.98
2024-05-09T00:47:59.763Z,13.98
2024-05-09T00:49:01.097Z,13.98
2024-05-09T00:50:05.558Z,13.98
2024-05-09T00:51:09.999Z,13.98
2024-05-09T00:52:12.013Z,13.99
2024-05-09T00:53:14.501Z,13.99
2024-05-09T00:54:18.683Z,14.00
2024-05-09T00:55:19.931Z,14.00
2024-05-09T00:56:22.263Z,13.99
2024-05-09T00:57:24.899Z,13.99
2024-05-09T00:58:28.678Z,13.99
2024-05-09T00:59:31.306Z,13.99
2024-05-09T01:00:38.721Z,13.99
2024-05-09T01:01:42.269Z,13.99
2024-05-09T01:02:44.462Z,13.98
2024-05-09T01:03:47.961Z,13.98
2024-05-09T01:04:52.181Z,13.99
2024-05-09T01:05:53.371Z,13.99
2024-05-09T01:06:56.744Z,13.99
2024-05-09T01:07:57.804Z,14.00
2024-05-09T01:08:59.075Z,14.01
2024-05-09T01:10:01.096Z,14.01
2024-05-09T01:11:02.378Z,14.02
2024-05-09T01:12:05.349Z,14.03
2024-05-09T01:13:06.966Z,14.04
2024-05-09T01:14:09.312Z,14.05
2024-05-09T01:15:10.370Z,14.06
2024-05-09T01:16:13.394Z,14.07
2024-05-09T01:17:14.620Z,14.06
2024-05-09T01:18:16.957Z,14.06
2024-05-09T01:19:22.370Z,14.06
2024-05-09T01:20:32.144Z,14.06
2024-05-09T01:21:42.684Z,14.05
2024-05-09T01:22:47.375Z,14.05
2024-05-09T01:23:49.761Z,14.03
2024-05-09T01:24:50.920Z,14.02
2024-05-09T01:25:52.950Z,14.01
2024-05-09T01:26:53.982Z,14.01
2024-05-09T01:27:55.941Z,14.01
2024-05-09T01:28:56.996Z,14.00
2024-05-09T01:29:59.051Z,14.00
2024-05-09T01:31:00.044Z,14.00
2024-05-09T01:32:03.377Z,14.00
2024-05-09T01:33:07.358Z,14.01
2024-05-09T01:34:10.252Z,14.00
2024-05-09T01:35:12.369Z,13.99
2024-05-09T01:36:13.562Z,13.98
2024-05-09T01:37:15.556Z,13.97
2024-05-09T01:38:18.696Z,13.96
2024-05-09T01:39:22.007Z,13.95
2024-05-09T01:40:33.259Z,13.92
2024-05-09T01:41:39.701Z,13.90
2024-05-09T01:42:40.934Z,13.89
2024-05-09T01:43:42.993Z,13.88
2024-05-09T01:44:44.046Z,13.86
2024-05-09T01:45:46.009Z,13.85
2024-05-09T01:46:47.110Z,13.85
2024-05-09T01:47:49.243Z,13.85
2024-05-09T01:48:50.422Z,13.84
2024-05-09T01:49:52.520Z,13.84
2024-05-09T01:50:53.616Z,13.83
2024-05-09T01:51:55.558Z,13.82
2024-05-09T01:52:56.650Z,13.81
2024-05-09T01:53:58.689Z,13.80
2024-05-09T01:55:03.406Z,13.80
2024-05-09T01:56:08.188Z,13.80
2024-05-09T01:57:09.365Z,13.80
2024-05-09T01:58:11.392Z,13.80
2024-05-09T01:59:12.426Z,13.79
2024-05-09T02:00:22.152Z,13.77
2024-05-09T02:01:30.642Z,13.75
2024-05-09T02:02:52.550Z,13.74
2024-05-09T02:03:53.719Z,13.73
2024-05-09T02:04:55.918Z,13.73
2024-05-09T02:05:57.172Z,13.73
2024-05-09T02:06:59.154Z,13.72
2024-05-09T02:08:00.230Z,13.71
2024-05-09T02:09:02.226Z,13.72
2024-05-09T02:10:10.758Z,13.71
2024-05-09T02:11:18.185Z,13.70
2024-05-09T02:12:19.337Z,13.70
2024-05-09T02:13:21.378Z,13.70
2024-05-09T02:14:22.450Z,13.70
2024-05-09T02:15:24.379Z,13.69
2024-05-09T02:16:25.337Z,13.69
2024-05-09T02:17:27.541Z,13.69
2024-05-09T02:18:28.746Z,13.69
2024-05-09T02:19:30.802Z,13.69
2024-05-09T02:20:36.223Z,13.68
2024-05-09T02:21:39.326Z,13.68
2024-05-09T02:22:42.491Z,13.67
2024-05-09T02:23:44.862Z,13.67
2024-05-09T02:24:45.912Z,13.66
2024-05-09T02:25:49.298Z,13.66
2024-05-09T02:26:50.358Z,13.65
2024-05-09T02:27:52.353Z,13.65
2024-05-09T02:28:53.400Z,13.65
2024-05-09T02:29:55.390Z,13.65
2024-05-09T02:30:56.390Z,13.64
2024-05-09T02:31:58.416Z,13.63
2024-05-09T02:32:59.546Z,13.62
2024-05-09T02:34:00.987Z,13.59
2024-05-09T02:35:03.341Z,13.56
2024-05-09T02:36:05.930Z,13.53
2024-05-09T02:37:06.980Z,13.50
2024-05-09T02:38:09.453Z,13.47
2024-05-09T02:39:10.594Z,13.44
2024-05-09T02:40:14.677Z,13.40
2024-05-09T02:41:20.488Z,13.35
2024-05-09T02:42:22.410Z,13.31
2024-05-09T02:43:23.423Z,13.27
2024-05-09T02:44:24.563Z,13.24
2024-05-09T02:45:25.676Z,13.21
2024-05-09T02:46:27.671Z,13.19
2024-05-09T02:47:28.892Z,13.18
2024-05-09T02:48:29.979Z,13.17
2024-05-09T02:49:31.195Z,13.15
2024-05-09T02:50:38.320Z,13.14
2024-05-09T02:51:40.940Z,13.13
2024-05-09T02:52:42.080Z,13.11
2024-05-09T02:53:43.067Z,13.10
2024-05-09T02:54:45.250Z,13.09
2024-05-09T02:55:46.420Z,13.05
2024-05-09T02:56:48.824Z,13.00
2024-05-09T02:57:50.802Z,12.96
2024-05-09T02:58:51.859Z,12.91
2024-05-09T02:59:52.895Z,12.86
2024-05-09T03:00:53.940Z,12.81
2024-05-09T03:01:56.001Z,12.76
2024-05-09T03:02:57.191Z,12.72
2024-05-09T03:03:58.374Z,12.69
2024-05-09T03:04:59.489Z,12.67
2024-05-09T03:06:01.753Z,12.65
2024-05-09T03:07:02.925Z,12.63
2024-05-09T03:08:04.885Z,12.61
2024-05-09T03:09:08.514Z,12.58
2024-05-09T03:10:18.314Z,12.54
2024-05-09T03:11:24.096Z,12.51
2024-05-09T03:12:26.837Z,12.49
2024-05-09T03:13:28.858Z,12.46
2024-05-09T03:14:30.022Z,12.44
2024-05-09T03:15:31.736Z,12.43
2024-05-09T03:16:36.570Z,12.41
2024-05-09T03:17:40.328Z,12.40
2024-05-09T03:18:41.489Z,12.38
2024-05-09T03:19:42.570Z,12.37
2024-05-09T03:20:43.994Z,12.35
2024-05-09T03:21:46.206Z,12.33
2024-05-09T03:22:47.292Z,12.30
2024-05-09T03:23:48.254Z,12.29
2024-05-09T03:24:49.447Z,12.28
2024-05-09T03:25:53.097Z,12.27
2024-05-09T03:26:54.138Z,12.26
2024-05-09T03:27:56.574Z,12.24
2024-05-09T03:28:58.724Z,12.23
2024-05-09T03:29:59.739Z,12.21
2024-05-09T03:31:00.881Z,12.18
2024-05-09T03:32:03.223Z,12.16
2024-05-09T03:33:04.915Z,12.14
2024-05-09T03:34:06.189Z,12.12
2024-05-09T03:35:07.327Z,12.09
2024-05-09T03:36:11.294Z,12.07
2024-05-09T03:37:13.706Z,12.05
2024-05-09T03:38:14.897Z,12.02
2024-05-09T03:39:16.065Z,12.00
2024-05-09T03:40:23.495Z,11.99
2024-05-09T03:41:27.328Z,11.98
2024-05-09T03:42:29.260Z,11.97
2024-05-09T03:43:31.574Z,11.97
2024-05-09T03:44:32.794Z,11.97
2024-05-09T03:45:34.886Z,11.97
2024-05-09T03:46:36.761Z,11.96
2024-05-09T03:47:38.065Z,11.96
2024-05-09T03:48:39.300Z,11.96
2024-05-09T03:49:41.299Z,11.96
2024-05-09T03:50:42.492Z,11.95
2024-05-09T03:51:43.564Z,11.94
2024-05-09T03:52:44.612Z,11.93
2024-05-09T03:53:46.569Z,11.93
2024-05-09T03:54:47.539Z,11.92
2024-05-09T03:55:48.605Z,11.91
2024-05-09T03:56:49.693Z,11.90
2024-05-09T03:57:51.647Z,11.91
2024-05-09T03:58:54.222Z,11.91
2024-05-09T03:59:55.170Z,11.92
2024-05-09T04:00:57.228Z,11.93
2024-05-09T04:01:58.438Z,11.94
2024-05-09T04:02:59.809Z,11.95
2024-05-09T04:04:00.922Z,11.97
2024-05-09T04:05:03.100Z,11.99
2024-05-09T04:06:04.451Z,12.01
2024-05-09T04:07:05.486Z,12.03
2024-05-09T04:08:06.897Z,12.06
2024-05-09T04:09:08.916Z,12.08
2024-05-09T04:10:20.562Z,12.10
2024-05-09T04:11:25.713Z,12.13
2024-05-09T04:12:26.848Z,12.15
2024-05-09T04:13:28.761Z,12.17
2024-05-09T04:14:31.279Z,12.20
2024-05-09T04:15:32.730Z,12.23
2024-05-09T04:16:34.836Z,12.25
2024-05-09T04:17:36.154Z,12.28
2024-05-09T04:18:37.402Z,12.31
2024-05-09T04:19:38.557Z,12.34
2024-05-09T04:20:41.443Z,12.36
2024-05-09T04:21:42.596Z,12.39
2024-05-09T04:22:43.717Z,12.41
2024-05-09T04:23:45.742Z,12.43
2024-05-09T04:24:47.398Z,12.45
2024-05-09T04:25:48.450Z,12.47
2024-05-09T04:26:49.716Z,12.49
2024-05-09T04:27:54.498Z,12.51
2024-05-09T04:28:55.534Z,12.52
2024-05-09T04:29:57.837Z,12.54
2024-05-09T04:30:58.858Z,12.56
2024-05-09T04:32:00.895Z,12.58
2024-05-09T04:33:02.253Z,12.60
2024-05-09T04:34:03.673Z,12.62
2024-05-09T04:35:05.320Z,12.64
2024-05-09T04:36:07.593Z,12.66
2024-05-09T04:37:08.609Z,12.68
2024-05-09T04:38:10.164Z,12.69
2024-05-09T04:39:11.261Z,12.71
2024-05-09T04:40:24.095Z,12.73
2024-05-09T04:41:32.384Z,12.76
2024-05-09T04:42:33.440Z,12.78
2024-05-09T04:43:35.366Z,12.80
2024-05-09T04:44:36.439Z,12.82
2024-05-09T04:45:38.802Z,12.84
2024-05-09T04:46:39.732Z,12.87
2024-05-09T04:47:41.885Z,12.89
2024-05-09T04:48:43.245Z,12.91
2024-05-09T04:49:45.407Z,12.92
2024-05-09T04:50:46.507Z,12.94
2024-05-09T04:51:48.520Z,12.95
2024-05-09T04:52:49.543Z,12.98
2024-05-09T04:53:50.582Z,12.99
2024-05-09T04:54:51.574Z,13.02
2024-05-09T04:55:53.608Z,13.04
2024-05-09T04:56:54.629Z,13.07
2024-05-09T04:57:55.636Z,13.09
2024-05-09T04:58:57.667Z,13.12
2024-05-09T04:59:59.479Z,13.14
2024-05-09T05:01:01.914Z,13.16
2024-05-09T05:02:04.329Z,13.19
2024-05-09T05:03:08.262Z,13.22
2024-05-09T05:04:10.496Z,13.24
2024-05-09T05:05:12.200Z,13.27
2024-05-09T05:06:14.291Z,13.30
2024-05-09T05:07:15.310Z,13.32
2024-05-09T05:08:18.073Z,13.34
2024-05-09T05:09:21.003Z,13.37
2024-05-09T05:10:29.507Z,13.40
2024-05-09T05:11:36.444Z,13.42
2024-05-09T05:12:56.065Z,13.44
2024-05-09T05:13:58.104Z,13.47
2024-05-09T05:14:59.162Z,13.49
2024-05-09T05:16:01.484Z,13.52
2024-05-09T05:17:03.651Z,13.55
2024-05-09T05:18:05.010Z,13.57
2024-05-09T05:19:10.150Z,13.59
2024-05-09T05:20:15.381Z,13.62
2024-05-09T05:21:24.081Z,13.65
2024-05-09T05:22:25.174Z,13.67
2024-05-09T05:23:26.291Z,13.69
2024-05-09T05:24:27.374Z,13.71
2024-05-09T05:25:29.357Z,13.73
2024-05-09T05:26:30.762Z,13.75
2024-05-09T05:27:31.843Z,13.77
2024-05-09T05:28:33.756Z,13.80
2024-05-09T05:29:35.040Z,13.83
2024-05-09T05:30:37.292Z,13.86
2024-05-09T05:31:39.688Z,13.88
2024-05-09T05:32:41.851Z,13.90
2024-05-09T05:33:43.081Z,13.92
2024-05-09T05:34:44.209Z,13.95
2024-05-09T05:35:45.410Z,13.97
2024-05-09T05:36:47.416Z,13.99
2024-05-09T05:37:48.501Z,14.02
2024-05-09T05:38:49.800Z,14.05
2024-05-09T05:39:50.888Z,14.08
2024-05-09T05:40:52.009Z,14.10
2024-05-09T05:41:54.010Z,14.13
2024-05-09T05:42:54.987Z,14.16
2024-05-09T05:43:56.079Z,14.19
2024-05-09T05:44:57.295Z,14.22
2024-05-09T05:45:59.307Z,14.24
2024-05-09T05:47:01.721Z,14.26
2024-05-09T05:48:04.283Z,14.28
2024-05-09T05:49:05.808Z,14.29
2024-05-09T05:50:20.459Z,14.29
2024-05-09T05:51:27.946Z,14.30
2024-05-09T05:52:28.978Z,14.31
2024-05-09T05:53:30.978Z,14.33
2024-05-09T05:54:32.031Z,14.36
2024-05-09T05:55:33.086Z,14.39
2024-05-09T05:56:34.286Z,14.41
2024-05-09T05:57:36.338Z,14.44
2024-05-09T05:58:37.490Z,14.46
2024-05-09T05:59:38.568Z,14.49
2024-05-09T06:00:41.196Z,14.50
2024-05-09T06:01:44.150Z,14.52
2024-05-09T06:02:46.858Z,14.54
2024-05-09T06:03:48.100Z,14.55
2024-05-09T06:04:49.374Z,14.57
2024-05-09T06:05:51.553Z,14.58
2024-05-09T06:06:52.666Z,14.59
2024-05-09T06:07:53.691Z,14.61
2024-05-09T06:08:54.872Z,14.61
2024-05-09T06:09:55.991Z,14.62
2024-05-09T06:10:58.143Z,14.64
2024-05-09T06:11:59.288Z,14.66
2024-05-09T06:13:00.398Z,14.68
2024-05-09T06:14:04.275Z,14.70
2024-05-09T06:15:06.040Z,14.73
2024-05-09T06:16:07.244Z,14.75
2024-05-09T06:17:08.388Z,14.78
2024-05-09T06:18:12.768Z,14.79
2024-05-09T06:19:14.274Z,14.81
2024-05-09T06:20:20.815Z,14.83
2024-05-09T06:21:29.558Z,14.86
2024-05-09T06:22:30.616Z,14.90
2024-05-09T06:23:31.868Z,14.93
2024-05-09T06:24:32.941Z,14.95
2024-05-09T06:25:35.306Z,14.98
2024-05-09T06:26:36.565Z,15.00
2024-05-09T06:27:38.688Z,15.03
2024-05-09T06:28:39.782Z,15.05
2024-05-09T06:29:41.852Z,15.07
2024-05-09T06:30:43.482Z,15.08
2024-05-09T06:31:45.558Z,15.10
2024-05-09T06:32:47.726Z,15.12
2024-05-09T06:33:50.385Z,15.15
2024-05-09T06:34:51.594Z,15.17
2024-05-09T06:35:58.135Z,15.19
2024-05-09T06:36:59.198Z,15.22
2024-05-09T06:38:00.466Z,15.24
2024-05-09T06:39:01.555Z,15.27
2024-05-09T06:40:03.180Z,15.30
2024-05-09T06:41:06.197Z,15.32
2024-05-09T06:42:07.268Z,15.34
2024-05-09T06:43:12.413Z,15.35
2024-05-09T06:44:13.591Z,15.36
2024-05-09T06:45:15.930Z,15.37
2024-05-09T06:46:16.999Z,15.38
2024-05-09T06:47:18.119Z,15.39
2024-05-09T06:48:20.461Z,15.41
2024-05-09T06:49:27.961Z,15.42
2024-05-09T06:50:35.742Z,15.46
2024-05-09T06:51:39.206Z,15.50
2024-05-09T06:52:41.205Z,15.52
2024-05-09T06:53:42.291Z,15.55
2024-05-09T06:54:43.311Z,15.57
2024-05-09T06:55:45.477Z,15.59
2024-05-09T06:56:46.587Z,15.61
2024-05-09T06:57:47.715Z,15.63
2024-05-09T06:58:49.807Z,15.65
2024-05-09T06:59:50.870Z,15.67
2024-05-09T07:00:52.057Z,15.69
2024-05-09T07:01:53.225Z,15.72
2024-05-09T07:02:55.407Z,15.73
2024-05-09T07:03:56.765Z,15.74
2024-05-09T07:04:59.702Z,15.76
2024-05-09T07:06:01.093Z,15.76
2024-05-09T07:07:05.411Z,15.77
2024-05-09T07:08:06.904Z,15.77
2024-05-09T07:09:08.365Z,15.78
2024-05-09T07:10:21.540Z,15.81
2024-05-09T07:11:26.821Z,15.83
2024-05-09T07:12:28.080Z,15.84
2024-05-09T07:13:29.243Z,15.85
2024-05-09T07:14:30.397Z,15.86
2024-05-09T07:15:32.510Z,15.88
2024-05-09T07:16:33.594Z,15.89
2024-05-09T07:17:34.809Z,15.90
2024-05-09T07:18:37.248Z,15.91
2024-05-09T07:19:38.921Z,15.91
2024-05-09T07:20:42.045Z,15.92
2024-05-09T07:21:43.421Z,15.94
2024-05-09T07:22:45.528Z,15.95
2024-05-09T07:23:47.445Z,15.97
2024-05-09T07:24:48.595Z,15.98
2024-05-09T07:25:49.863Z,15.99
2024-05-09T07:26:51.919Z,16.00
2024-05-09T07:27:53.207Z,16.01
2024-05-09T07:28:54.566Z,16.02
2024-05-09T07:29:56.626Z,16.03
2024-05-09T07:30:58.671Z,16.05
2024-05-09T07:31:59.828Z,16.08
2024-05-09T07:33:01.633Z,16.10
2024-05-09T07:34:03.764Z,16.13
2024-05-09T07:35:06.161Z,16.15
2024-05-09T07:36:08.606Z,16.17
2024-05-09T07:37:11.515Z,16.19
2024-05-09T07:38:12.717Z,16.22
2024-05-09T07:39:14.780Z,16.24
2024-05-09T07:40:24.875Z,16.27
2024-05-09T07:41:33.772Z,16.29
2024-05-09T07:42:34.894Z,16.30
2024-05-09T07:43:36.932Z,16.32
2024-05-09T07:44:38.048Z,16.35
2024-05-09T07:45:48.726Z,16.37
2024-05-09T07:48:13.771Z,16.39
2024-05-09T07:53:34.567Z,16.48
2024-05-09T07:54:10.111Z,16.53
2024-05-09T07:55:12.607Z,16.57
2024-05-09T07:56:14.286Z,16.60
2024-05-09T07:57:15.652Z,16.63
2024-05-09T07:58:17.737Z,16.68
2024-05-09T07:59:18.857Z,16.73
2024-05-09T08:00:23.747Z,16.77
2024-05-09T08:01:31.767Z,16.80
2024-05-09T08:02:33.267Z,16.84
2024-05-09T08:03:34.703Z,16.87
2024-05-09T08:04:36.020Z,16.89
2024-05-09T08:05:37.332Z,16.91
2024-05-09T08:06:41.450Z,16.94
2024-05-09T08:07:44.212Z,16.98
2024-05-09T08:08:45.578Z,17.00
2024-05-09T08:09:47.727Z,17.02
2024-05-09T08:10:49.252Z,17.04
2024-05-09T08:11:51.540Z,17.05
2024-05-09T08:12:52.913Z,17.04
2024-05-09T08:13:54.950Z,17.06
2024-05-09T08:14:56.174Z,17.07
2024-05-09T08:15:57.625Z,17.09
2024-05-09T08:16:59.722Z,17.10
2024-05-09T08:18:01.072Z,17.11
2024-05-09T08:19:02.337Z,17.12
2024-05-09T08:20:05.691Z,17.12
2024-05-09T08:21:06.843Z,17.13
2024-05-09T08:22:09.597Z,17.16
2024-05-09T08:23:11.793Z,17.18
2024-05-09T08:24:12.839Z,17.19
2024-05-09T08:25:14.380Z,17.21
2024-05-09T08:26:16.622Z,17.22
2024-05-09T08:27:17.792Z,17.23
2024-05-09T08:28:19.013Z,17.23
2024-05-09T08:29:20.188Z,17.25
2024-05-09T08:30:29.723Z,17.26
2024-05-09T08:31:37.264Z,17.30
2024-05-09T08:32:38.910Z,17.33
2024-05-09T08:33:44.148Z,17.37
2024-05-09T08:34:45.496Z,17.40
2024-05-09T08:35:46.632Z,17.43
2024-05-09T08:36:48.715Z,17.46
2024-05-09T08:37:52.253Z,17.48
2024-05-09T08:38:53.644Z,17.50
2024-05-09T08:39:54.894Z,17.52
2024-05-09T08:40:56.998Z,17.56
2024-05-09T08:42:01.016Z,17.58
2024-05-09T08:43:06.161Z,17.60
2024-05-09T08:44:07.383Z,17.60
2024-05-09T08:45:09.629Z,17.61
2024-05-09T08:46:12.133Z,17.63
2024-05-09T08:47:13.858Z,17.65
2024-05-09T08:48:16.762Z,17.67
2024-05-09T08:49:18.104Z,17.68
2024-05-09T08:50:29.235Z,17.69
2024-05-09T08:51:37.541Z,17.71
2024-05-09T08:52:39.841Z,17.73
2024-05-09T08:53:42.323Z,17.75
2024-05-09T08:54:43.941Z,17.77
2024-05-09T08:55:46.834Z,17.78
2024-05-09T08:56:49.448Z,17.80
2024-05-09T08:57:52.228Z,17.83
2024-05-09T08:58:55.846Z,17.86
2024-05-09T09:00:04.836Z,17.88
2024-05-09T09:01:07.833Z,17.91
2024-05-09T09:02:13.092Z,17.92
2024-05-09T09:03:18.017Z,17.92
2024-05-09T09:04:21.575Z,17.93
2024-05-09T09:05:27.997Z,17.94
2024-05-09T09:06:33.278Z,17.96
2024-05-09T09:07:37.327Z,17.97
2024-05-09T09:08:38.644Z,17.98
2024-05-09T09:09:44.604Z,18.00
2024-05-09T09:10:47.589Z,18.02
2024-05-09T09:11:48.994Z,18.04
2024-05-09T09:12:56.616Z,18.06
2024-05-09T09:13:57.721Z,18.08
2024-05-09T09:14:59.758Z,18.11
2024-05-09T09:16:01.709Z,18.15
2024-05-09T09:17:11.536Z,18.17
2024-05-09T09:18:14.241Z,18.19
2024-05-09T09:19:15.842Z,18.20
2024-05-09T09:20:23.237Z,18.21
2024-05-09T09:21:31.223Z,18.21
2024-05-09T09:22:33.190Z,18.20
2024-05-09T09:23:34.319Z,18.19
2024-05-09T09:24:36.547Z,18.19
2024-05-09T09:25:39.637Z,18.19
2024-05-09T09:26:40.723Z,18.20
2024-05-09T09:27:43.440Z,18.21
2024-05-09T09:28:44.839Z,18.19
2024-05-09T09:29:45.946Z,18.18
2024-05-09T09:30:48.046Z,18.17
2024-05-09T09:31:57.153Z,18.18
2024-05-09T09:32:58.405Z,18.19
2024-05-09T09:34:05.934Z,18.21
2024-05-09T09:35:08.045Z,18.23
2024-05-09T09:36:12.559Z,18.26
2024-05-09T09:37:18.024Z,18.29
2024-05-09T09:38:22.101Z,18.31
2024-05-09T09:39:27.204Z,18.34
2024-05-09T09:40:35.107Z,18.38
2024-05-09T09:41:43.262Z,18.40
2024-05-09T09:42:51.346Z,18.41
2024-05-09T09:43:52.667Z,18.44
2024-05-09T09:45:02.174Z,18.45
2024-05-09T09:46:11.727Z,18.46
2024-05-09T09:47:14.949Z,18.47
2024-05-09T09:48:16.638Z,18.48
2024-05-09T09:49:18.548Z,18.50
2024-05-09T09:50:27.732Z,18.53
2024-05-09T09:51:35.773Z,18.58
2024-05-09T09:52:37.382Z,18.60
2024-05-09T09:53:39.783Z,18.64
2024-05-09T09:54:43.192Z,18.68
2024-05-09T09:55:45.317Z,18.70
2024-05-09T09:56:48.457Z,18.73
2024-05-09T09:57:50.650Z,18.75
2024-05-09T09:58:52.237Z,18.77
2024-05-09T09:59:54.572Z,18.78
2024-05-09T10:00:56.769Z,18.80
2024-05-09T10:01:58.085Z,18.84
2024-05-09T10:02:59.482Z,18.87
2024-05-09T10:04:03.072Z,18.89
2024-05-09T10:05:05.296Z,18.92
2024-05-09T10:06:07.653Z,18.95
2024-05-09T10:07:10.404Z,18.98
2024-05-09T10:08:13.050Z,19.03
2024-05-09T10:09:15.438Z,19.06
2024-05-09T10:10:27.313Z,19.11
2024-05-09T10:11:39.533Z,19.15
2024-05-09T10:12:57.455Z,19.17
2024-05-09T10:13:58.619Z,19.18
2024-05-09T10:15:06.529Z,19.17
2024-05-09T10:16:10.171Z,19.16
2024-05-09T10:17:11.446Z,19.17
2024-05-09T10:18:12.923Z,19.16
2024-05-09T10:19:24.443Z,19.16
2024-05-09T10:20:30.889Z,19.18
2024-05-09T10:21:34.637Z,19.19
2024-05-09T10:22:48.009Z,19.19
2024-05-09T10:23:56.401Z,19.23
2024-05-09T10:25:05.346Z,19.26
2024-05-09T10:26:06.760Z,19.28
2024-05-09T10:27:07.980Z,19.30
2024-05-09T10:28:11.407Z,19.31
2024-05-09T10:29:14.526Z,19.33
2024-05-09T10:30:26.153Z,19.35
2024-05-09T10:31:38.125Z,19.37
2024-05-09T10:32:40.323Z,19.38
2024-05-09T10:33:46.939Z,19.39
2024-05-09T10:35:05.299Z,19.41
2024-05-09T10:36:12.895Z,19.42
2024-05-09T10:37:15.381Z,19.49
2024-05-09T10:38:17.232Z,19.54
2024-05-09T10:39:19.582Z,19.57
2024-05-09T10:41:25.211Z,19.64
2024-05-09T10:42:27.107Z,19.68
2024-05-09T10:43:30.363Z,19.70
2024-05-09T10:44:37.601Z,19.75
2024-05-09T10:45:38.940Z,19.81
2024-05-09T10:46:40.467Z,19.85
2024-05-09T10:47:43.206Z,19.90
2024-05-09T10:48:44.977Z,19.95
2024-05-09T10:49:47.490Z,19.99
2024-05-09T10:50:48.703Z,20.03
2024-05-09T10:51:52.154Z,20.06
2024-05-09T10:52:53.270Z,20.09
2024-05-09T10:53:55.842Z,20.11
2024-05-09T10:54:58.263Z,20.14
2024-05-09T10:56:00.487Z,20.16
2024-05-09T10:57:01.667Z,20.19
2024-05-09T10:58:03.067Z,20.23
2024-05-09T10:59:06.478Z,20.25
2024-05-09T11:00:15.580Z,20.26
2024-05-09T11:01:20.300Z,20.26
2024-05-09T11:02:22.762Z,20.24
2024-05-09T11:03:24.831Z,20.27
2024-05-09T11:04:26.992Z,20.29
2024-05-09T11:05:28.741Z,20.31
2024-05-09T11:06:33.830Z,20.34
2024-05-09T11:07:35.028Z,20.37
2024-05-09T11:08:36.641Z,20.40
2024-05-09T11:09:38.549Z,20.44
2024-05-09T11:10:40.944Z,20.47
2024-05-09T11:11:42.214Z,20.49
2024-05-09T11:12:44.711Z,20.52
2024-05-09T11:13:45.851Z,20.55
2024-05-09T11:14:55.327Z,20.58
2024-05-09T11:15:56.969Z,20.61
2024-05-09T11:16:58.777Z,20.64
2024-05-09T11:17:59.959Z,20.67
2024-05-09T11:19:02.375Z,20.70
2024-05-09T11:20:10.487Z,20.72
2024-05-09T11:21:14.689Z,20.73
2024-05-09T11:22:15.872Z,20.77
2024-05-09T11:23:18.162Z,20.80
2024-05-09T11:24:19.271Z,20.83
2024-05-09T11:25:20.463Z,20.86
2024-05-09T11:26:23.967Z,20.89
2024-05-09T11:27:26.080Z,20.92
2024-05-09T11:28:27.508Z,20.92
2024-05-09T11:29:37.019Z,20.93
2024-05-09T11:30:40.498Z,20.97
2024-05-09T11:31:45.240Z,20.99
2024-05-09T11:32:46.459Z,20.99
2024-05-09T11:33:47.888Z,20.98
2024-05-09T11:34:49.998Z,20.98
2024-05-09T11:35:51.102Z,20.99
2024-05-09T11:36:52.235Z,20.99
2024-05-09T11:37:53.377Z,20.98
2024-05-09T11:38:55.700Z,20.97
2024-05-09T11:39:56.901Z,20.96
2024-05-09T11:41:01.250Z,20.97
2024-05-09T11:42:02.694Z,21.01
2024-05-09T11:43:04.975Z,21.04
2024-05-09T11:44:07.262Z,21.05
2024-05-09T11:45:08.429Z,21.08
2024-05-09T11:46:11.112Z,21.11
2024-05-09T11:47:13.260Z,21.13
2024-05-09T11:48:14.757Z,21.14
2024-05-09T11:49:16.148Z,21.16
2024-05-09T11:50:26.772Z,21.18
2024-05-09T11:51:32.216Z,21.20
2024-05-09T11:52:33.421Z,21.25
2024-05-09T11:53:34.499Z,21.29
2024-05-09T11:54:36.627Z,21.32
2024-05-09T11:55:37.772Z,21.34
2024-05-09T11:56:38.960Z,21.35
2024-05-09T11:57:40.052Z,21.37
2024-05-09T11:58:42.146Z,21.40
2024-05-09T11:59:43.276Z,21.40
2024-05-09T12:00:44.572Z,21.40
2024-05-09T12:01:47.196Z,21.41
2024-05-09T12:02:51.420Z,21.42
2024-05-09T12:03:53.581Z,21.44
2024-05-09T12:04:54.982Z,21.45
2024-05-09T12:05:57.482Z,21.46
2024-05-09T12:06:58.671Z,21.46
2024-05-09T12:07:59.965Z,21.44
2024-05-09T12:09:01.298Z,21.45
2024-05-09T12:10:03.489Z,21.47
2024-05-09T12:11:06.810Z,21.49
2024-05-09T12:12:08.112Z,21.51
2024-05-09T12:13:09.337Z,21.52
2024-05-09T12:14:11.632Z,21.55
2024-05-09T12:15:12.946Z,21.58
2024-05-09T12:16:14.163Z,21.61
2024-05-09T12:17:19.755Z,21.63
2024-05-09T12:18:22.046Z,21.67
2024-05-09T12:19:23.349Z,21.70
2024-05-09T12:20:32.391Z,21.72
2024-05-09T12:21:38.627Z,21.75
2024-05-09T12:22:39.714Z,21.77
2024-05-09T12:23:40.947Z,21.78
2024-05-09T12:24:42.118Z,21.80
2024-05-09T12:25:44.418Z,21.83
2024-05-09T12:26:45.799Z,21.86
2024-05-09T12:27:46.883Z,21.86
2024-05-09T12:28:48.905Z,21.85
2024-05-09T12:29:49.980Z,21.85
2024-05-09T12:30:51.267Z,21.87
2024-05-09T12:31:53.459Z,21.89
2024-05-09T12:32:56.101Z,21.88
2024-05-09T12:33:59.126Z,21.87
2024-05-09T12:35:00.330Z,21.84
2024-05-09T12:36:02.362Z,21.80
2024-05-09T12:37:03.931Z,21.73
2024-05-09T12:38:05.175Z,21.67
2024-05-09T12:39:08.562Z,21.63
2024-05-09T12:40:18.695Z,21.60
2024-05-09T12:41:27.626Z,21.57
2024-05-09T12:42:30.529Z,21.56
2024-05-09T12:43:33.993Z,21.54
2024-05-09T12:44:35.206Z,21.53
2024-05-09T12:45:36.449Z,21.52
2024-05-09T12:46:38.579Z,21.54
2024-05-09T12:47:39.791Z,21.56
2024-05-09T12:48:42.412Z,21.60
2024-05-09T12:49:43.869Z,21.63
2024-05-09T12:50:46.129Z,21.66
2024-05-09T12:51:47.372Z,21.68
2024-05-09T12:52:48.485Z,21.72
2024-05-09T12:53:49.625Z,21.76
2024-05-09T12:54:51.700Z,21.80
2024-05-09T12:55:57.012Z,21.87
2024-05-09T12:57:01.559Z,21.92
2024-05-09T12:58:03.941Z,21.95
2024-05-09T12:59:05.113Z,21.96
2024-05-09T13:00:09.336Z,21.96
2024-05-09T13:01:12.713Z,21.96
2024-05-09T13:02:15.295Z,21.97
2024-05-09T13:03:16.801Z,21.96
2024-05-09T13:04:19.475Z,21.94
2024-05-09T13:05:20.864Z,21.97
2024-05-09T13:06:23.076Z,21.99
2024-05-09T13:07:24.882Z,22.03
2024-05-09T13:08:26.212Z,22.05
2024-05-09T13:09:28.411Z,22.05
2024-05-09T13:10:32.691Z,22.02
2024-05-09T13:11:34.758Z,22.02
2024-05-09T13:12:35.970Z,22.04
2024-05-09T13:13:38.073Z,22.08
2024-05-09T13:14:39.220Z,22.09
2024-05-09T13:15:40.547Z,22.09
2024-05-09T13:16:41.906Z,22.08
2024-05-09T13:17:43.276Z,22.06
2024-05-09T13:18:46.033Z,22.05
2024-05-09T13:19:48.832Z,22.05
2024-05-09T13:20:50.192Z,22.05
2024-05-09T13:21:51.640Z,22.05
2024-05-09T13:22:54.159Z,22.06
2024-05-09T13:23:56.816Z,22.08
2024-05-09T13:24:59.322Z,22.08
2024-05-09T13:26:00.877Z,22.10
2024-05-09T13:27:03.380Z,22.10
2024-05-09T13:28:05.447Z,22.06
2024-05-09T13:29:07.191Z,22.02
2024-05-09T13:30:14.805Z,22.05
2024-05-09T13:31:25.857Z,22.11
2024-05-09T13:32:27.409Z,22.18
2024-05-09T13:33:30.847Z,22.26
2024-05-09T13:34:34.224Z,22.32
2024-05-09T13:35:37.111Z,22.39